createdAt,value
2018-05-08T00:01:07.797Z,1.77
2018-05-08T00:03:39.038Z,1.80
2018-05-08T00:06:10.394Z,2.83
2018-05-08T00:08:41.778Z,2.30
2018-05-08T00:11:14.013Z,2.00
2018-05-08T00:13:45.357Z,1.87
2018-05-08T00:16:16.706Z,1.90
2018-05-08T00:18:48.097Z,2.10
2018-05-08T00:21:20.211Z,2.10
2018-05-08T00:23:51.889Z,1.70
2018-05-08T00:26:23.552Z,2.30
2018-05-08T00:28:56.281Z,1.90
2018-05-08T00:31:27.714Z,2.37
2018-05-08T00:33:59.120Z,2.00
2018-05-08T00:36:30.550Z,2.27
2018-05-08T00:39:01.916Z,2.17
2018-05-08T00:41:33.453Z,1.70
2018-05-08T00:44:04.812Z,2.20
2018-05-08T00:46:36.154Z,2.13
2018-05-08T00:49:08.042Z,2.03
2018-05-08T00:51:40.226Z,2.23
2018-05-08T00:54:12.363Z,2.30
2018-05-08T00:56:43.910Z,2.00
2018-05-08T00:59:15.346Z,2.00
2018-05-08T01:01:46.893Z,2.30
2018-05-08T01:04:18.406Z,2.00
2018-05-08T01:06:50.082Z,1.93
2018-05-08T01:09:22.225Z,2.10
2018-05-08T01:11:53.906Z,2.40
2018-05-08T01:14:25.557Z,1.90
2018-05-08T01:16:57.918Z,2.30
2018-05-08T01:19:29.283Z,1.90
2018-05-08T01:22:00.459Z,1.90
2018-05-08T01:24:32.141Z,2.00
2018-05-08T01:27:03.541Z,2.30
2018-05-08T01:29:34.919Z,2.63
2018-05-08T01:32:07.188Z,2.23
2018-05-08T01:34:38.588Z,2.53
2018-05-08T01:37:09.955Z,2.40
2018-05-08T01:39:41.341Z,2.20
2018-05-08T01:42:12.491Z,2.00
2018-05-08T01:44:44.005Z,2.27
2018-05-08T01:47:15.678Z,2.40
2018-05-08T01:49:47.045Z,2.50
2018-05-08T01:52:18.411Z,2.10
2018-05-08T01:54:49.837Z,2.00
2018-05-08T01:57:22.149Z,2.13
2018-05-08T01:59:53.551Z,2.40
2018-05-08T02:02:24.957Z,2.20
2018-05-08T02:04:56.347Z,2.60
2018-05-08T02:07:27.613Z,2.33
2018-05-08T02:09:59.005Z,2.33
2018-05-08T02:12:30.457Z,2.60
2018-05-08T02:15:01.853Z,2.10
2018-05-08T02:17:33.217Z,1.90
2018-05-08T02:20:05.214Z,2.07
2018-05-08T02:22:36.563Z,2.00
2018-05-08T02:25:07.974Z,2.03
2018-05-08T02:27:39.404Z,2.00
2018-05-08T02:30:11.567Z,1.93
2018-05-08T02:32:43.726Z,2.20
2018-05-08T02:35:15.126Z,2.10
2018-05-08T02:37:46.859Z,2.37
2018-05-08T02:40:19.028Z,2.30
2018-05-08T02:42:51.378Z,1.90
2018-05-08T02:45:22.750Z,2.17
2018-05-08T02:47:54.148Z,2.27
2018-05-08T02:50:25.542Z,2.40
2018-05-08T02:52:56.786Z,2.60
2018-05-08T02:55:27.850Z,2.50
2018-05-08T02:57:59.263Z,2.17
2018-05-08T03:00:32.166Z,2.27
2018-05-08T03:03:04.290Z,2.10
2018-05-08T03:05:35.674Z,2.30
2018-05-08T03:08:07.815Z,3.00
2018-05-08T03:10:39.241Z,2.40
2018-05-08T03:13:10.638Z,2.37
2018-05-08T03:15:42.050Z,2.40
2018-05-08T03:18:13.398Z,2.30
2018-05-08T03:20:44.803Z,2.37
2018-05-08T03:23:17.158Z,2.10
2018-05-08T03:25:48.526Z,2.60
2018-05-08T03:28:20.663Z,2.20
2018-05-08T03:30:52.048Z,2.67
2018-05-08T03:33:24.185Z,5.70
2018-05-08T03:35:55.552Z,3.10
2018-05-08T03:38:27.722Z,2.97
2018-05-08T03:40:59.211Z,3.00
2018-05-08T03:43:31.615Z,3.80
2018-05-08T03:46:03.003Z,2.73
2018-05-08T03:48:35.137Z,3.00
2018-05-08T03:51:07.461Z,2.90
2018-05-08T03:53:38.923Z,2.60
2018-05-08T03:56:10.313Z,2.80
2018-05-08T03:58:41.668Z,2.67
2018-05-08T04:01:30.153Z,2.33
2018-05-08T04:04:18.465Z,3.30
2018-05-08T04:07:15.481Z,2.63
2018-05-08T04:09:46.856Z,2.87
2018-05-08T04:12:18.219Z,3.27
2018-05-08T04:14:49.591Z,3.27
2018-05-08T04:17:21.006Z,3.10
2018-05-08T04:19:52.420Z,3.00
2018-05-08T04:22:23.817Z,2.63
2018-05-08T04:24:55.314Z,3.00
2018-05-08T04:27:26.760Z,2.87
2018-05-08T04:29:58.962Z,5.43
2018-05-08T04:32:30.526Z,3.23
2018-05-08T04:35:01.929Z,3.17
2018-05-08T04:37:33.760Z,4.13
2018-05-08T04:40:05.177Z,3.07
2018-05-08T04:42:37.316Z,3.10
2018-05-08T04:45:08.692Z,3.07
2018-05-08T04:47:41.013Z,3.20
2018-05-08T04:50:13.158Z,5.20
2018-05-08T04:52:44.543Z,3.00
2018-05-08T04:55:16.698Z,3.53
2018-05-08T04:57:48.072Z,3.93
2018-05-08T05:00:20.241Z,3.67
2018-05-08T05:02:51.931Z,3.73
2018-05-08T05:05:23.640Z,3.40
2018-05-08T05:07:55.098Z,3.40
2018-05-08T05:10:26.670Z,3.40
2018-05-08T05:12:58.938Z,3.20
2018-05-08T05:15:30.594Z,3.27
2018-05-08T05:18:02.706Z,3.33
2018-05-08T05:20:34.182Z,3.07
2018-05-08T05:23:05.609Z,3.50
2018-05-08T05:25:37.029Z,3.30
2018-05-08T05:28:09.251Z,3.50
2018-05-08T05:30:40.654Z,3.40
2018-05-08T05:33:12.788Z,4.37
2018-05-08T05:35:44.216Z,4.10
2018-05-08T05:38:15.573Z,3.73
2018-05-08T05:40:47.155Z,6.43
2018-05-08T05:43:18.564Z,4.60
2018-05-08T05:45:49.642Z,4.20
2018-05-08T05:48:21.052Z,3.60
2018-05-08T05:50:53.379Z,3.90
2018-05-08T05:53:25.147Z,3.50
2018-05-08T05:55:56.594Z,3.70
2018-05-08T05:58:28.768Z,4.23
2018-05-08T06:01:00.151Z,3.90
2018-05-08T06:03:31.622Z,3.90
2018-05-08T06:06:03.009Z,3.77
2018-05-08T06:08:35.213Z,3.90
2018-05-08T06:11:06.553Z,4.80
2018-05-08T06:13:37.957Z,3.70
2018-05-08T06:16:09.331Z,3.87
2018-05-08T06:18:40.728Z,4.47
2018-05-08T06:21:12.155Z,3.93
2018-05-08T06:23:43.609Z,3.93
2018-05-08T06:26:15.554Z,4.23
2018-05-08T06:28:47.856Z,4.23
2018-05-08T06:31:19.346Z,4.50
2018-05-08T06:33:50.740Z,3.97
2018-05-08T06:36:22.890Z,4.10
2018-05-08T06:38:54.716Z,4.27
2018-05-08T06:41:26.267Z,4.67
2018-05-08T06:43:57.665Z,4.13
2018-05-08T06:46:29.021Z,3.83
2018-05-08T06:49:01.177Z,4.17
2018-05-08T06:51:33.312Z,4.23
2018-05-08T06:54:04.745Z,6.50
2018-05-08T06:56:36.201Z,4.60
2018-05-08T06:59:07.774Z,4.00
2018-05-08T07:01:39.240Z,4.20
2018-05-08T07:04:10.608Z,4.60
2018-05-08T07:06:42.802Z,4.20
2018-05-08T07:09:14.698Z,4.20
2018-05-08T07:11:46.585Z,4.97
2018-05-08T07:14:17.969Z,3.83
2018-05-08T07:16:49.399Z,3.87
2018-05-08T07:19:21.627Z,3.73
2018-05-08T07:21:53.006Z,3.67
2018-05-08T07:24:24.922Z,4.23
2018-05-08T07:26:56.322Z,4.83
2018-05-08T07:29:27.737Z,4.90
2018-05-08T07:31:59.227Z,4.70
2018-05-08T07:34:31.721Z,4.20
2018-05-08T07:37:03.910Z,4.10
2018-05-08T07:39:35.367Z,3.57
2018-05-08T07:42:06.732Z,3.93
2018-05-08T07:44:38.146Z,3.97
2018-05-08T07:47:10.997Z,3.80
2018-05-08T07:49:42.490Z,3.50
2018-05-08T07:52:14.763Z,3.50
2018-05-08T07:54:46.987Z,3.50
2018-05-08T07:57:18.369Z,3.23
2018-05-08T07:59:49.745Z,3.20
2018-05-08T08:02:21.215Z,2.53
2018-05-08T08:04:52.732Z,1.80
2018-05-08T08:07:24.864Z,1.47
2018-05-08T08:09:56.272Z,1.70
2018-05-08T08:12:27.710Z,1.60
2018-05-08T08:14:59.306Z,1.77
2018-05-08T08:17:30.996Z,1.87
2018-05-08T08:20:02.374Z,1.57
2018-05-08T08:22:33.821Z,1.57
2018-05-08T08:25:04.288Z,1.87
2018-05-08T08:27:35.821Z,2.00
2018-05-08T08:30:06.862Z,1.57
2018-05-08T08:32:38.283Z,1.57
2018-05-08T08:35:09.934Z,2.10
2018-05-08T08:37:41.337Z,1.23
2018-05-08T08:40:13.465Z,1.70
2018-05-08T08:42:45.646Z,1.97
2018-05-08T08:45:17.791Z,1.70
2018-05-08T08:47:50.203Z,1.50
2018-05-08T08:50:22.312Z,2.00
2018-05-08T08:52:53.835Z,1.60
2018-05-08T08:55:25.933Z,1.53
2018-05-08T08:57:57.421Z,1.87
2018-05-08T09:00:29.116Z,1.73
2018-05-08T09:03:00.517Z,1.50
2018-05-08T09:05:31.896Z,1.80
2018-05-08T09:08:04.022Z,1.43
2018-05-08T09:10:35.225Z,1.53
2018-05-08T09:13:07.429Z,1.73
2018-05-08T09:15:38.802Z,1.50
2018-05-08T09:18:10.290Z,1.80
2018-05-08T09:20:42.286Z,1.80
2018-05-08T09:23:14.679Z,1.80
2018-05-08T09:25:46.046Z,1.80
2018-05-08T09:28:17.423Z,2.37
2018-05-08T09:30:49.572Z,1.87
2018-05-08T09:33:21.041Z,2.00
2018-05-08T09:35:52.435Z,1.97
2018-05-08T09:38:23.851Z,1.77
2018-05-08T09:40:55.364Z,1.80
2018-05-08T09:43:27.683Z,1.63
2018-05-08T09:45:59.114Z,1.60
2018-05-08T09:48:31.598Z,1.50
2018-05-08T09:51:04.112Z,1.63
2018-05-08T09:53:35.508Z,1.60
2018-05-08T09:56:06.885Z,1.50
2018-05-08T09:58:38.298Z,1.30
2018-05-08T10:01:09.750Z,1.33
2018-05-08T10:03:41.767Z,1.30
2018-05-08T10:06:13.599Z,1.50
2018-05-08T10:08:45.996Z,1.53
2018-05-08T10:11:18.290Z,1.33
2018-05-08T10:13:51.330Z,1.60
2018-05-08T10:16:24.003Z,1.42
2018-05-08T10:18:56.674Z,2.10
2018-05-08T10:21:29.329Z,1.65
2018-05-08T10:24:01.761Z,1.70
2018-05-08T10:26:34.888Z,1.30
2018-05-08T10:29:07.058Z,1.40
2018-05-08T10:31:39.167Z,1.40
2018-05-08T10:34:11.185Z,1.70
2018-05-08T10:36:44.634Z,2.17
2018-05-08T10:39:16.614Z,1.40
2018-05-08T10:41:48.567Z,1.20
2018-05-08T10:44:21.660Z,1.48
2018-05-08T10:46:53.718Z,1.27
2018-05-08T10:49:25.630Z,1.58
2018-05-08T10:51:58.822Z,1.40
2018-05-08T10:54:30.792Z,1.30
2018-05-08T10:57:02.749Z,1.60
2018-05-08T10:59:34.785Z,1.70
2018-05-08T11:02:06.990Z,1.60
2018-05-08T11:04:39.002Z,1.20
2018-05-08T11:07:11.113Z,1.60
2018-05-08T11:09:43.962Z,1.30
2018-05-08T11:12:16.141Z,1.30
2018-05-08T11:14:48.064Z,1.30
2018-05-08T11:17:20.843Z,1.70
2018-05-08T11:19:53.563Z,1.25
2018-05-08T11:22:25.528Z,1.45
2018-05-08T11:24:57.450Z,1.48
2018-05-08T11:27:29.749Z,1.50
2018-05-08T11:30:01.701Z,1.30
2018-05-08T11:32:34.275Z,1.62
2018-05-08T11:35:07.061Z,1.87
2018-05-08T11:37:39.425Z,1.35
2018-05-08T11:40:12.195Z,1.60
2018-05-08T11:42:44.268Z,1.60
2018-05-08T11:45:16.498Z,1.20
2018-05-08T11:47:48.559Z,1.35
2018-05-08T11:50:20.643Z,1.30
2018-05-08T11:52:52.720Z,1.25
2018-05-08T11:55:24.777Z,1.20
2018-05-08T11:57:56.722Z,1.40
2018-05-08T12:00:28.694Z,1.30
2018-05-08T12:03:00.838Z,1.40
2018-05-08T12:05:32.883Z,1.12
2018-05-08T12:08:05.227Z,1.37
2018-05-08T12:10:37.227Z,1.10
2018-05-08T12:13:10.162Z,1.65
2018-05-08T12:15:42.099Z,1.17
2018-05-08T12:18:14.294Z,1.12
2018-05-08T12:20:46.240Z,1.35
2018-05-08T12:23:18.315Z,1.90
2018-05-08T12:25:51.591Z,1.40
2018-05-08T12:28:23.742Z,1.27
2018-05-08T12:30:56.481Z,1.40
2018-05-08T12:33:29.218Z,1.12
2018-05-08T12:36:00.821Z,1.40
2018-05-08T12:38:32.782Z,1.23
2018-05-08T12:41:04.747Z,1.52
2018-05-08T12:43:36.725Z,1.23
2018-05-08T12:46:09.578Z,1.52
2018-05-08T12:48:42.949Z,1.40
2018-05-08T12:51:14.671Z,1.50
2018-05-08T12:53:46.371Z,1.50
2018-05-08T12:56:18.100Z,1.50
2018-05-08T12:58:49.835Z,1.63
2018-05-08T13:01:21.711Z,1.27
2018-05-08T13:03:53.877Z,1.37
2018-05-08T13:06:25.642Z,1.60
2018-05-08T13:08:57.255Z,1.23
2018-05-08T13:11:29.916Z,1.80
2018-05-08T13:14:02.725Z,1.37
2018-05-08T13:16:34.725Z,1.80
2018-05-08T13:19:07.415Z,1.30
2018-05-08T13:21:39.445Z,1.33
2018-05-08T13:24:11.530Z,1.30
2018-05-08T13:26:43.743Z,1.40
2018-05-08T13:29:15.729Z,1.52
2018-05-08T13:31:47.829Z,1.45
2018-05-08T13:34:20.741Z,1.90
2018-05-08T13:36:52.767Z,1.47
2018-05-08T13:39:25.570Z,2.83
2018-05-08T13:41:58.348Z,1.20
2018-05-08T13:44:31.191Z,1.40
2018-05-08T13:47:03.664Z,1.20
2018-05-08T13:49:35.987Z,1.30
2018-05-08T13:52:09.191Z,1.20
2018-05-08T13:54:41.931Z,1.20
2018-05-08T13:57:13.923Z,1.40
2018-05-08T13:59:46.655Z,1.02
2018-05-08T14:02:19.960Z,1.40
2018-05-08T14:04:53.091Z,1.35
2018-05-08T14:07:25.265Z,1.05
2018-05-08T14:09:57.939Z,0.93
2018-05-08T14:12:30.091Z,1.33
2018-05-08T14:15:02.126Z,1.45
2018-05-08T14:17:34.253Z,2.33
2018-05-08T14:20:05.988Z,1.30
2018-05-08T14:22:39.630Z,1.20
2018-05-08T14:25:12.435Z,1.60
2018-05-08T14:27:44.058Z,3.92
2018-05-08T14:30:16.766Z,2.03
2018-05-08T14:32:48.791Z,1.27
2018-05-08T14:35:21.504Z,1.40
2018-05-08T14:37:54.601Z,1.67
2018-05-08T14:40:26.678Z,1.08
2018-05-08T14:42:58.686Z,2.60
2018-05-08T14:45:31.401Z,1.20
2018-05-08T14:48:03.392Z,1.55
2018-05-08T14:50:35.690Z,1.20
2018-05-08T14:53:07.642Z,1.20
2018-05-08T14:55:39.621Z,1.42
2018-05-08T14:58:11.576Z,1.30
2018-05-08T15:00:43.867Z,1.45
2018-05-08T15:03:15.930Z,1.60
2018-05-08T15:05:48.763Z,1.80
2018-05-08T15:08:21.014Z,1.70
2018-05-08T15:10:52.950Z,1.40
2018-05-08T15:13:25.702Z,1.20
2018-05-08T15:15:57.661Z,1.23
2018-05-08T15:18:29.623Z,1.17
2018-05-08T15:21:01.590Z,1.10
2018-05-08T15:23:33.543Z,1.30
2018-05-08T15:26:04.682Z,1.50
2018-05-08T15:28:36.636Z,1.20
2018-05-08T15:31:08.665Z,1.08
2018-05-08T15:33:40.583Z,1.75
2018-05-08T15:36:12.558Z,1.23
2018-05-08T15:38:44.909Z,1.08
2018-05-08T15:41:16.586Z,1.00
2018-05-08T15:43:48.872Z,1.10
2018-05-08T15:46:20.897Z,1.35
2018-05-08T15:48:53.100Z,1.40
2018-05-08T15:51:25.025Z,1.10
2018-05-08T15:53:57.050Z,1.10
2018-05-08T15:56:29.010Z,1.40
2018-05-08T15:59:00.966Z,1.33
2018-05-08T16:01:32.896Z,1.10
2018-05-08T16:04:04.962Z,1.10
2018-05-08T16:06:36.611Z,1.37
2018-05-08T16:09:09.042Z,1.13
2018-05-08T16:11:41.507Z,1.17
2018-05-08T16:14:12.975Z,1.10
2018-05-08T16:16:44.915Z,1.60
2018-05-08T16:19:16.896Z,0.90
2018-05-08T16:21:48.744Z,0.90
2018-05-08T16:24:20.280Z,1.30
2018-05-08T16:26:53.073Z,1.10
2018-05-08T16:29:24.591Z,1.03
2018-05-08T16:31:56.554Z,1.00
2018-05-08T16:34:27.909Z,1.10
2018-05-08T16:37:00.062Z,1.23
2018-05-08T16:39:31.755Z,1.07
2018-05-08T16:42:03.242Z,1.30
2018-05-08T16:44:34.629Z,1.30
2018-05-08T16:47:05.998Z,1.20
2018-05-08T16:49:38.160Z,1.90
2018-05-08T16:52:10.355Z,1.53
2018-05-08T16:54:41.826Z,1.50
2018-05-08T16:57:14.209Z,1.60
2018-05-08T16:59:45.758Z,1.30
2018-05-08T17:02:17.127Z,1.10
2018-05-08T17:04:49.061Z,1.20
2018-05-08T17:07:21.388Z,1.10
2018-05-08T17:09:53.619Z,0.90
2018-05-08T17:12:25.023Z,1.67
2018-05-08T17:14:56.452Z,1.17
2018-05-08T17:17:28.171Z,1.20
2018-05-08T17:19:59.589Z,1.23
2018-05-08T17:22:33.001Z,1.37
2018-05-08T17:25:04.420Z,1.40
2018-05-08T17:27:35.819Z,1.00
2018-05-08T17:30:07.281Z,1.27
2018-05-08T17:32:38.740Z,1.07
2018-05-08T17:35:09.970Z,1.07
2018-05-08T17:37:41.354Z,1.33
2018-05-08T17:40:12.750Z,1.03
2018-05-08T17:42:44.191Z,1.00
2018-05-08T17:45:15.658Z,1.03
2018-05-08T17:47:47.795Z,1.30
2018-05-08T17:50:21.040Z,1.50
2018-05-08T17:52:52.480Z,1.20
2018-05-08T17:55:23.872Z,1.30
2018-05-08T17:57:55.295Z,1.67
2018-05-08T18:00:26.715Z,1.57
2018-05-08T18:02:58.874Z,1.43
2018-05-08T18:05:30.259Z,1.23
2018-05-08T18:08:01.656Z,1.30
2018-05-08T18:10:33.236Z,1.20
2018-05-08T18:13:05.411Z,1.40
2018-05-08T18:15:38.869Z,1.53
2018-05-08T18:18:10.375Z,1.47
2018-05-08T18:20:41.650Z,1.17
2018-05-08T18:23:13.102Z,1.40
2018-05-08T18:25:44.621Z,1.60
2018-05-08T18:28:16.458Z,1.43
2018-05-08T18:30:48.467Z,1.67
2018-05-08T18:33:19.823Z,1.70
2018-05-08T18:35:51.307Z,1.60
2018-05-08T18:38:23.496Z,1.80
2018-05-08T18:40:55.002Z,1.47
2018-05-08T18:43:26.816Z,1.47
2018-05-08T18:45:58.895Z,1.67
2018-05-08T18:48:30.613Z,1.60
2018-05-08T18:51:02.074Z,1.53
2018-05-08T18:53:33.526Z,1.37
2018-05-08T18:56:04.973Z,1.47
2018-05-08T18:58:38.191Z,2.00
2018-05-08T19:01:10.724Z,1.90
2018-05-08T19:03:42.251Z,1.80
2018-05-08T19:06:13.978Z,2.03
2018-05-08T19:08:46.767Z,1.83
2018-05-08T19:11:24.348Z,1.70
2018-05-08T19:13:56.545Z,1.73
2018-05-08T19:16:27.959Z,1.60
2018-05-08T19:19:04.756Z,1.70
2018-05-08T19:21:36.174Z,1.67
2018-05-08T19:24:12.850Z,1.70
2018-05-08T19:26:44.476Z,1.70
2018-05-08T19:29:21.633Z,2.10
2018-05-08T19:31:53.023Z,1.83
2018-05-08T19:34:24.635Z,2.00
2018-05-08T19:37:02.184Z,1.57
2018-05-08T19:39:34.466Z,2.10
2018-05-08T19:42:06.941Z,1.73
2018-05-08T19:44:39.581Z,1.73
2018-05-08T19:47:10.944Z,1.83
2018-05-08T19:49:42.423Z,1.80
2018-05-08T19:52:13.966Z,1.73
2018-05-08T19:54:45.437Z,2.00
2018-05-08T19:57:16.883Z,2.17
2018-05-08T19:59:48.384Z,2.20
2018-05-08T20:02:20.571Z,2.90
2018-05-08T20:04:51.973Z,2.90
2018-05-08T20:07:23.847Z,2.63
2018-05-08T20:09:55.552Z,2.93
2018-05-08T20:12:27.694Z,3.00
2018-05-08T20:15:00.770Z,2.63
2018-05-08T20:17:34.087Z,2.70
2018-05-08T20:20:05.038Z,2.37
2018-05-08T20:22:38.010Z,2.20
2018-05-08T20:25:09.849Z,2.30
2018-05-08T20:27:41.271Z,2.13
2018-05-08T20:30:12.688Z,2.30
2018-05-08T20:32:44.874Z,1.83
2018-05-08T20:35:16.519Z,2.13
2018-05-08T20:37:47.915Z,1.80
2018-05-08T20:40:20.372Z,1.90
2018-05-08T20:42:51.790Z,1.80
2018-05-08T20:45:25.193Z,2.10
2018-05-08T20:47:56.697Z,2.50
2018-05-08T20:50:28.225Z,1.80
2018-05-08T20:52:59.649Z,2.07
2018-05-08T20:55:31.607Z,2.03
2018-05-08T20:58:03.158Z,1.70
2018-05-08T21:00:34.643Z,1.90
2018-05-08T21:03:06.041Z,1.70
2018-05-08T21:05:38.236Z,1.80
2018-05-08T21:08:09.676Z,2.00
2018-05-08T21:10:42.895Z,1.77
2018-05-08T21:13:14.947Z,2.00
2018-05-08T21:15:46.896Z,2.00
2018-05-08T21:18:18.470Z,1.90
2018-05-08T21:20:50.346Z,2.00
2018-05-08T21:23:22.722Z,2.03
2018-05-08T21:25:54.146Z,2.03
2018-05-08T21:28:31.039Z,1.70
2018-05-08T21:31:07.473Z,1.97
2018-05-08T21:33:39.116Z,2.07
2018-05-08T21:36:10.514Z,2.00
2018-05-08T21:38:41.824Z,2.10
2018-05-08T21:41:13.426Z,2.10
2018-05-08T21:43:44.817Z,1.97
2018-05-08T21:46:16.402Z,1.87
2018-05-08T21:48:48.605Z,2.13
2018-05-08T21:51:20.380Z,2.20
2018-05-08T21:53:52.684Z,2.00
2018-05-08T21:56:24.076Z,1.53
2018-05-08T21:58:55.495Z,1.93
2018-05-08T22:01:27.006Z,1.90
2018-05-08T22:03:59.238Z,1.60
2018-05-08T22:06:31.245Z,1.70
2018-05-08T22:09:02.896Z,1.63
2018-05-08T22:11:34.541Z,1.83
2018-05-08T22:14:05.901Z,2.13
2018-05-08T22:16:37.353Z,1.97
2018-05-08T22:19:08.798Z,1.93
2018-05-08T22:21:40.968Z,2.20
2018-05-08T22:24:12.319Z,1.83
2018-05-08T22:26:43.650Z,1.70
2018-05-08T22:29:15.002Z,1.40
2018-05-08T22:31:46.491Z,1.73
2018-05-08T22:34:17.856Z,1.83
2018-05-08T22:36:50.188Z,1.67
2018-05-08T22:39:21.578Z,2.20
2018-05-08T22:41:52.997Z,1.97
2018-05-08T22:44:25.467Z,2.23
2018-05-08T22:46:56.890Z,1.87
2018-05-08T22:49:28.270Z,1.60
2018-05-08T22:51:59.520Z,1.70
2018-05-08T22:54:31.378Z,1.70
2018-05-08T22:57:03.604Z,1.67
2018-05-08T22:59:35.135Z,1.80
2018-05-08T23:02:08.500Z,1.67
2018-05-08T23:04:40.888Z,1.80
2018-05-08T23:07:12.027Z,1.50
2018-05-08T23:09:43.633Z,2.00
2018-05-08T23:12:15.195Z,1.83
2018-05-08T23:14:46.225Z,1.53
2018-05-08T23:17:17.743Z,1.80
2018-05-08T23:19:49.112Z,1.80
2018-05-08T23:22:20.590Z,1.60
2018-05-08T23:24:52.063Z,1.87
2018-05-08T23:27:24.050Z,1.83
2018-05-08T23:29:55.487Z,1.83
2018-05-08T23:32:26.844Z,1.70
2018-05-08T23:34:58.958Z,1.60
2018-05-08T23:37:30.321Z,1.47
2018-05-08T23:40:01.726Z,1.50
2018-05-08T23:42:33.177Z,1.80
2018-05-08T23:45:05.417Z,1.70
2018-05-08T23:47:36.976Z,1.53
2018-05-08T23:50:09.173Z,1.63
2018-05-08T23:52:40.570Z,1.70
2018-05-08T23:55:11.936Z,1.80
2018-05-08T23:57:43.118Z,1.87
